Laguna de Duero, Spain
Current Conditions -  °F | °C
As of 7:30 PM on Thursday 23 Oct 2014 (Local Time) from LEVD Reporting Station
Clear Clear  
Wind Chill: 19°   Ceiling: Unl
Heat Index: 19°   Visibility: 6mi
Dew Point:   Wind: 1mph
Humidity: 49%   Direction: 320°NW
Pressure: 30.27"   Gusts: NA
Location:  41.58°N, 4.72°W
Report Text: LEVD 231730Z 32001KT CAVOK 19/08 Q1025
Loading
Personal Weather Stations






























Interactive Weather Map
Tropical Storm Tracking
New forecast layout! Learn more

10-Day Weather Forecast

Advertisements
Track Severe Weather on mobile